Andover, Maine
Current Conditions -  °F | °C
As of 5:52 PM on Tuesday 21 Oct 2014 (Local Time) from KBML Reporting Station
Light Rain Light Rain  
Wind Chill: 44°   Ceiling: 1800
Heat Index: 46°   Visibility: 7mi
Dew Point: 44°   Wind: 5mph
Humidity: 93%   Direction: 350°N
Pressure: 30.04"   Gusts: NA
Location:  44.64°N, 70.75°W
Report Text: KBML 212152Z AUTO 35004KT 7SM -RA OVC018 08/07 A3004 RMK AO2 SLP183 P0002 T00780067
Loading
Personal Weather Stations






























Interactive Weather Map
Tropical Storm Tracking
New forecast layout! Learn more

10-Day Weather Forecast

Advertisements
Track Severe Weather on mobile